sensor_id;sensor_type;location;lat;lon;timestamp;temperature;humidity
4962;DHT22;2496;52.468;13.342;2022-07-15T00:00:01;17.00;90.30
4962;DHT22;2496;52.468;13.342;2022-07-15T00:02:28;17.00;90.40
4962;DHT22;2496;52.468;13.342;2022-07-15T00:04:55;16.90;90.50
4962;DHT22;2496;52.468;13.342;2022-07-15T00:07:24;16.80;90.60
4962;DHT22;2496;52.468;13.342;2022-07-15T00:09:51;16.80;90.90
4962;DHT22;2496;52.468;13.342;2022-07-15T00:12:36;16.80;90.90
4962;DHT22;2496;52.468;13.342;2022-07-15T00:15:05;16.80;90.80
4962;DHT22;2496;52.468;13.342;2022-07-15T00:17:32;16.80;90.80
4962;DHT22;2496;52.468;13.342;2022-07-15T00:20:00;16.80;91.00
4962;DHT22;2496;52.468;13.342;2022-07-15T00:22:29;16.80;91.10
4962;DHT22;2496;52.468;13.342;2022-07-15T00:24:56;16.80;91.10
4962;DHT22;2496;52.468;13.342;2022-07-15T00:27:24;16.70;91.10
4962;DHT22;2496;52.468;13.342;2022-07-15T00:29:51;16.70;91.10
4962;DHT22;2496;52.468;13.342;2022-07-15T00:32:18;16.60;91.20
4962;DHT22;2496;52.468;13.342;2022-07-15T00:34:46;16.50;91.30
4962;DHT22;2496;52.468;13.342;2022-07-15T00:37:13;16.50;91.40
4962;DHT22;2496;52.468;13.342;2022-07-15T00:39:42;16.50;91.50
4962;DHT22;2496;52.468;13.342;2022-07-15T00:42:11;16.40;91.60
4962;DHT22;2496;52.468;13.342;2022-07-15T00:44:59;16.40;91.70
4962;DHT22;2496;52.468;13.342;2022-07-15T00:47:27;16.40;91.80
4962;DHT22;2496;52.468;13.342;2022-07-15T00:49:54;16.40;91.80
4962;DHT22;2496;52.468;13.342;2022-07-15T00:52:23;16.30;91.90
4962;DHT22;2496;52.468;13.342;2022-07-15T00:54:54;16.30;92.00
4962;DHT22;2496;52.468;13.342;2022-07-15T00:57:23;16.20;92.00
4962;DHT22;2496;52.468;13.342;2022-07-15T00:59:52;16.20;92.10
4962;DHT22;2496;52.468;13.342;2022-07-15T01:02:20;16.20;92.10
4962;DHT22;2496;52.468;13.342;2022-07-15T01:04:48;16.20;92.20
4962;DHT22;2496;52.468;13.342;2022-07-15T01:07:15;16.10;92.30
4962;DHT22;2496;52.468;13.342;2022-07-15T01:09:43;16.10;92.50
4962;DHT22;2496;52.468;13.342;2022-07-15T01:12:14;16.00;92.60
4962;DHT22;2496;52.468;13.342;2022-07-15T01:14:41;16.00;92.60
4962;DHT22;2496;52.468;13.342;2022-07-15T01:17:09;16.00;92.70
4962;DHT22;2496;52.468;13.342;2022-07-15T01:19:37;16.00;92.80
4962;DHT22;2496;52.468;13.342;2022-07-15T01:22:06;16.00;93.00
4962;DHT22;2496;52.468;13.342;2022-07-15T01:24:33;15.90;93.00
4962;DHT22;2496;52.468;13.342;2022-07-15T01:27:01;15.90;93.10
4962;DHT22;2496;52.468;13.342;2022-07-15T01:29:29;15.80;93.20
4962;DHT22;2496;52.468;13.342;2022-07-15T01:31:56;15.80;93.20
4962;DHT22;2496;52.468;13.342;2022-07-15T01:34:23;15.80;93.30
4962;DHT22;2496;52.468;13.342;2022-07-15T01:36:51;15.70;93.50
4962;DHT22;2496;52.468;13.342;2022-07-15T01:39:20;15.70;93.60
4962;DHT22;2496;52.468;13.342;2022-07-15T01:41:47;15.60;93.60
4962;DHT22;2496;52.468;13.342;2022-07-15T01:44:14;15.60;93.70
4962;DHT22;2496;52.468;13.342;2022-07-15T01:46:41;15.60;93.80
4962;DHT22;2496;52.468;13.342;2022-07-15T01:49:08;15.60;93.80
4962;DHT22;2496;52.468;13.342;2022-07-15T01:51:53;15.60;93.70
4962;DHT22;2496;52.468;13.342;2022-07-15T01:54:23;15.60;93.80
4962;DHT22;2496;52.468;13.342;2022-07-15T01:56:52;15.50;93.60
4962;DHT22;2496;52.468;13.342;2022-07-15T01:59:21;15.50;93.70
4962;DHT22;2496;52.468;13.342;2022-07-15T02:01:50;15.30;93.90
4962;DHT22;2496;52.468;13.342;2022-07-15T02:04:18;15.30;94.10
4962;DHT22;2496;52.468;13.342;2022-07-15T02:06:45;15.20;94.00
4962;DHT22;2496;52.468;13.342;2022-07-15T02:09:13;15.30;94.10
4962;DHT22;2496;52.468;13.342;2022-07-15T02:11:42;15.30;94.10
4962;DHT22;2496;52.468;13.342;2022-07-15T02:14:10;15.30;94.00
4962;DHT22;2496;52.468;13.342;2022-07-15T02:16:37;15.30;94.10
4962;DHT22;2496;52.468;13.342;2022-07-15T02:19:05;15.20;94.10
4962;DHT22;2496;52.468;13.342;2022-07-15T02:21:34;15.20;94.10
4962;DHT22;2496;52.468;13.342;2022-07-15T02:24:02;15.20;94.10
4962;DHT22;2496;52.468;13.342;2022-07-15T02:26:29;15.20;94.20
4962;DHT22;2496;52.468;13.342;2022-07-15T02:28:58;15.20;94.30
4962;DHT22;2496;52.468;13.342;2022-07-15T02:31:25;15.20;94.30
4962;DHT22;2496;52.468;13.342;2022-07-15T02:33:53;15.10;94.30
4962;DHT22;2496;52.468;13.342;2022-07-15T02:36:20;15.10;94.40
4962;DHT22;2496;52.468;13.342;2022-07-15T02:38:47;15.10;94.50
4962;DHT22;2496;52.468;13.342;2022-07-15T02:41:14;15.10;94.50
4962;DHT22;2496;52.468;13.342;2022-07-15T02:43:42;15.10;94.50
4962;DHT22;2496;52.468;13.342;2022-07-15T02:46:10;15.00;94.50
4962;DHT22;2496;52.468;13.342;2022-07-15T02:48:38;15.00;94.60
4962;DHT22;2496;52.468;13.342;2022-07-15T02:51:05;15.00;94.70
4962;DHT22;2496;52.468;13.342;2022-07-15T02:53:33;15.00;94.80
4962;DHT22;2496;52.468;13.342;2022-07-15T02:56:00;15.00;94.90
4962;DHT22;2496;52.468;13.342;2022-07-15T02:58:28;14.90;94.90
4962;DHT22;2496;52.468;13.342;2022-07-15T03:00:56;14.90;95.00
4962;DHT22;2496;52.468;13.342;2022-07-15T03:03:24;14.90;95.10
4962;DHT22;2496;52.468;13.342;2022-07-15T03:05:54;14.90;95.20
4962;DHT22;2496;52.468;13.342;2022-07-15T03:08:21;14.90;95.30
4962;DHT22;2496;52.468;13.342;2022-07-15T03:10:48;14.90;95.50
4962;DHT22;2496;52.468;13.342;2022-07-15T03:13:15;14.80;95.50
4962;DHT22;2496;52.468;13.342;2022-07-15T03:15:42;14.80;95.60
4962;DHT22;2496;52.468;13.342;2022-07-15T03:18:09;14.80;95.60
4962;DHT22;2496;52.468;13.342;2022-07-15T03:20:38;14.80;95.70
4962;DHT22;2496;52.468;13.342;2022-07-15T03:23:05;14.80;95.80
4962;DHT22;2496;52.468;13.342;2022-07-15T03:25:32;14.80;95.80
4962;DHT22;2496;52.468;13.342;2022-07-15T03:27:59;14.80;96.00
4962;DHT22;2496;52.468;13.342;2022-07-15T03:30:26;14.80;96.00
4962;DHT22;2496;52.468;13.342;2022-07-15T03:32:54;14.70;96.10
4962;DHT22;2496;52.468;13.342;2022-07-15T03:35:21;14.70;96.10
4962;DHT22;2496;52.468;13.342;2022-07-15T03:37:49;14.70;96.20
4962;DHT22;2496;52.468;13.342;2022-07-15T03:40:16;14.70;96.40
4962;DHT22;2496;52.468;13.342;2022-07-15T03:42:43;14.70;96.40
4962;DHT22;2496;52.468;13.342;2022-07-15T03:45:10;14.60;96.40
4962;DHT22;2496;52.468;13.342;2022-07-15T03:47:37;14.60;96.50
4962;DHT22;2496;52.468;13.342;2022-07-15T03:50:05;14.60;96.70
4962;DHT22;2496;52.468;13.342;2022-07-15T03:52:32;14.70;96.70
4962;DHT22;2496;52.468;13.342;2022-07-15T03:55:00;14.70;96.70
4962;DHT22;2496;52.468;13.342;2022-07-15T03:57:27;14.70;96.80
4962;DHT22;2496;52.468;13.342;2022-07-15T03:59:54;14.70;96.80
4962;DHT22;2496;52.468;13.342;2022-07-15T04:02:20;14.70;96.80
4962;DHT22;2496;52.468;13.342;2022-07-15T04:04:47;14.70;96.80
4962;DHT22;2496;52.468;13.342;2022-07-15T04:07:14;14.70;96.90
4962;DHT22;2496;52.468;13.342;2022-07-15T04:09:42;14.70;96.90
4962;DHT22;2496;52.468;13.342;2022-07-15T04:12:11;14.70;97.00
4962;DHT22;2496;52.468;13.342;2022-07-15T04:14:38;14.70;97.00
4962;DHT22;2496;52.468;13.342;2022-07-15T04:17:04;14.70;97.10
4962;DHT22;2496;52.468;13.342;2022-07-15T04:19:31;14.80;97.10
4962;DHT22;2496;52.468;13.342;2022-07-15T04:21:59;14.70;97.20
4962;DHT22;2496;52.468;13.342;2022-07-15T04:24:26;14.80;97.60
4962;DHT22;2496;52.468;13.342;2022-07-15T04:26:52;14.80;97.30
4962;DHT22;2496;52.468;13.342;2022-07-15T04:29:21;14.80;97.40
4962;DHT22;2496;52.468;13.342;2022-07-15T04:31:48;14.80;97.20
4962;DHT22;2496;52.468;13.342;2022-07-15T04:34:15;14.80;97.30
4962;DHT22;2496;52.468;13.342;2022-07-15T04:36:42;14.80;97.30
4962;DHT22;2496;52.468;13.342;2022-07-15T04:39:09;14.80;97.40
4962;DHT22;2496;52.468;13.342;2022-07-15T04:41:36;14.80;97.50
4962;DHT22;2496;52.468;13.342;2022-07-15T04:44:03;14.80;97.60
4962;DHT22;2496;52.468;13.342;2022-07-15T04:46:31;14.80;97.60
4962;DHT22;2496;52.468;13.342;2022-07-15T04:48:58;14.80;97.60
4962;DHT22;2496;52.468;13.342;2022-07-15T04:51:42;14.90;97.60
4962;DHT22;2496;52.468;13.342;2022-07-15T04:54:09;15.00;97.60
4962;DHT22;2496;52.468;13.342;2022-07-15T04:56:37;15.00;97.50
4962;DHT22;2496;52.468;13.342;2022-07-15T04:59:04;15.10;97.40
4962;DHT22;2496;52.468;13.342;2022-07-15T05:01:32;15.20;97.60
4962;DHT22;2496;52.468;13.342;2022-07-15T05:03:59;15.20;97.20
4962;DHT22;2496;52.468;13.342;2022-07-15T05:06:27;15.20;97.20
4962;DHT22;2496;52.468;13.342;2022-07-15T05:08:54;15.20;97.10
4962;DHT22;2496;52.468;13.342;2022-07-15T05:11:21;15.20;97.10
4962;DHT22;2496;52.468;13.342;2022-07-15T05:13:47;15.30;97.30
4962;DHT22;2496;52.468;13.342;2022-07-15T05:16:14;15.30;97.10
4962;DHT22;2496;52.468;13.342;2022-07-15T05:18:43;15.30;97.00
4962;DHT22;2496;52.468;13.342;2022-07-15T05:21:10;15.40;97.00
4962;DHT22;2496;52.468;13.342;2022-07-15T05:23:37;15.40;97.00
4962;DHT22;2496;52.468;13.342;2022-07-15T05:26:05;15.50;96.80
4962;DHT22;2496;52.468;13.342;2022-07-15T05:28:32;15.60;96.80
4962;DHT22;2496;52.468;13.342;2022-07-15T05:30:59;15.70;96.90
4962;DHT22;2496;52.468;13.342;2022-07-15T05:33:26;15.70;96.90
4962;DHT22;2496;52.468;13.342;2022-07-15T05:35:55;15.80;96.60
4962;DHT22;2496;52.468;13.342;2022-07-15T05:38:22;15.90;96.50
4962;DHT22;2496;52.468;13.342;2022-07-15T05:40:49;16.10;96.30
4962;DHT22;2496;52.468;13.342;2022-07-15T05:43:15;16.10;96.00
4962;DHT22;2496;52.468;13.342;2022-07-15T05:45:42;16.20;96.10
4962;DHT22;2496;52.468;13.342;2022-07-15T05:48:09;16.30;95.90
4962;DHT22;2496;52.468;13.342;2022-07-15T05:50:36;16.30;95.60
4962;DHT22;2496;52.468;13.342;2022-07-15T05:53:05;16.30;95.60
4962;DHT22;2496;52.468;13.342;2022-07-15T05:55:32;16.40;95.60
4962;DHT22;2496;52.468;13.342;2022-07-15T05:57:59;16.50;95.50
4962;DHT22;2496;52.468;13.342;2022-07-15T06:00:26;16.50;95.30
4962;DHT22;2496;52.468;13.342;2022-07-15T06:02:52;16.60;95.00
4962;DHT22;2496;52.468;13.342;2022-07-15T06:05:19;16.60;94.50
4962;DHT22;2496;52.468;13.342;2022-07-15T06:07:46;16.60;94.40
4962;DHT22;2496;52.468;13.342;2022-07-15T06:10:15;16.70;94.40
4962;DHT22;2496;52.468;13.342;2022-07-15T06:12:41;16.80;94.30
4962;DHT22;2496;52.468;13.342;2022-07-15T06:15:09;17.00;94.10
4962;DHT22;2496;52.468;13.342;2022-07-15T06:17:36;17.10;93.80
4962;DHT22;2496;52.468;13.342;2022-07-15T06:20:04;17.00;93.10
4962;DHT22;2496;52.468;13.342;2022-07-15T06:22:31;16.70;93.60
4962;DHT22;2496;52.468;13.342;2022-07-15T06:24:58;16.70;94.20
4962;DHT22;2496;52.468;13.342;2022-07-15T06:27:29;16.70;93.80
4962;DHT22;2496;52.468;13.342;2022-07-15T06:29:57;16.70;93.70
4962;DHT22;2496;52.468;13.342;2022-07-15T06:32:25;16.80;93.80
4962;DHT22;2496;52.468;13.342;2022-07-15T06:34:52;16.80;93.60
4962;DHT22;2496;52.468;13.342;2022-07-15T06:37:20;16.90;93.60
4962;DHT22;2496;52.468;13.342;2022-07-15T06:39:47;17.00;93.40
4962;DHT22;2496;52.468;13.342;2022-07-15T06:42:14;17.10;93.30
4962;DHT22;2496;52.468;13.342;2022-07-15T06:44:42;17.20;93.30
4962;DHT22;2496;52.468;13.342;2022-07-15T06:47:09;17.20;93.30
4962;DHT22;2496;52.468;13.342;2022-07-15T06:49:36;17.20;93.40
4962;DHT22;2496;52.468;13.342;2022-07-15T06:52:03;17.20;93.20
4962;DHT22;2496;52.468;13.342;2022-07-15T06:54:31;17.30;93.10
4962;DHT22;2496;52.468;13.342;2022-07-15T06:56:58;17.20;93.30
4962;DHT22;2496;52.468;13.342;2022-07-15T06:59:25;17.20;93.30
4962;DHT22;2496;52.468;13.342;2022-07-15T07:01:54;17.20;93.30
4962;DHT22;2496;52.468;13.342;2022-07-15T07:04:21;17.20;93.40
4962;DHT22;2496;52.468;13.342;2022-07-15T07:06:48;17.30;93.50
4962;DHT22;2496;52.468;13.342;2022-07-15T07:09:15;17.30;93.50
4962;DHT22;2496;52.468;13.342;2022-07-15T07:11:42;17.40;93.40
4962;DHT22;2496;52.468;13.342;2022-07-15T07:14:09;17.50;93.10
4962;DHT22;2496;52.468;13.342;2022-07-15T07:16:36;17.50;93.00
4962;DHT22;2496;52.468;13.342;2022-07-15T07:19:04;17.50;93.10
4962;DHT22;2496;52.468;13.342;2022-07-15T07:21:31;17.50;93.00
4962;DHT22;2496;52.468;13.342;2022-07-15T07:23:58;17.50;93.20
4962;DHT22;2496;52.468;13.342;2022-07-15T07:26:25;17.60;93.30
4962;DHT22;2496;52.468;13.342;2022-07-15T07:28:52;17.70;93.20
4962;DHT22;2496;52.468;13.342;2022-07-15T07:31:19;17.70;93.00
4962;DHT22;2496;52.468;13.342;2022-07-15T07:33:51;17.80;92.80
4962;DHT22;2496;52.468;13.342;2022-07-15T07:36:19;17.80;92.70
4962;DHT22;2496;52.468;13.342;2022-07-15T07:38:47;17.80;92.40
4962;DHT22;2496;52.468;13.342;2022-07-15T07:41:14;17.80;92.20
4962;DHT22;2496;52.468;13.342;2022-07-15T07:43:41;17.80;92.10
4962;DHT22;2496;52.468;13.342;2022-07-15T07:46:07;17.70;91.80
4962;DHT22;2496;52.468;13.342;2022-07-15T07:48:34;17.70;91.80
4962;DHT22;2496;52.468;13.342;2022-07-15T07:51:02;17.70;91.80
4962;DHT22;2496;52.468;13.342;2022-07-15T07:53:30;18.00;91.90
4962;DHT22;2496;52.468;13.342;2022-07-15T07:55:57;18.20;91.30
4962;DHT22;2496;52.468;13.342;2022-07-15T07:58:24;18.40;91.00
4962;DHT22;2496;52.468;13.342;2022-07-15T08:00:51;18.40;90.50
4962;DHT22;2496;52.468;13.342;2022-07-15T08:03:18;18.40;90.80
4962;DHT22;2496;52.468;13.342;2022-07-15T08:05:45;18.40;90.50
4962;DHT22;2496;52.468;13.342;2022-07-15T08:08:13;18.40;90.30
4962;DHT22;2496;52.468;13.342;2022-07-15T08:10:43;18.40;90.20
4962;DHT22;2496;52.468;13.342;2022-07-15T08:13:11;18.40;90.40
4962;DHT22;2496;52.468;13.342;2022-07-15T08:15:38;18.30;90.00
4962;DHT22;2496;52.468;13.342;2022-07-15T08:18:05;18.30;90.00
4962;DHT22;2496;52.468;13.342;2022-07-15T08:20:33;18.20;89.30
4962;DHT22;2496;52.468;13.342;2022-07-15T08:23:01;18.20;89.10
4962;DHT22;2496;52.468;13.342;2022-07-15T08:25:30;18.20;88.80
4962;DHT22;2496;52.468;13.342;2022-07-15T08:28:00;18.20;88.80
4962;DHT22;2496;52.468;13.342;2022-07-15T08:30:28;18.10;88.20
4962;DHT22;2496;52.468;13.342;2022-07-15T08:32:56;18.20;87.60
4962;DHT22;2496;52.468;13.342;2022-07-15T08:35:23;18.20;86.10
4962;DHT22;2496;52.468;13.342;2022-07-15T08:37:50;18.30;85.70
4962;DHT22;2496;52.468;13.342;2022-07-15T08:40:17;18.20;85.20
4962;DHT22;2496;52.468;13.342;2022-07-15T08:42:45;18.10;85.50
4962;DHT22;2496;52.468;13.342;2022-07-15T08:45:15;18.00;85.70
4962;DHT22;2496;52.468;13.342;2022-07-15T08:47:44;17.80;85.30
4962;DHT22;2496;52.468;13.342;2022-07-15T08:50:13;17.80;86.00
4962;DHT22;2496;52.468;13.342;2022-07-15T08:52:42;17.90;86.80
4962;DHT22;2496;52.468;13.342;2022-07-15T08:55:10;17.90;86.90
4962;DHT22;2496;52.468;13.342;2022-07-15T08:57:37;18.00;86.80
4962;DHT22;2496;52.468;13.342;2022-07-15T09:00:06;18.10;87.00
4962;DHT22;2496;52.468;13.342;2022-07-15T09:02:37;18.20;87.30
4962;DHT22;2496;52.468;13.342;2022-07-15T09:05:22;18.30;86.80
4962;DHT22;2496;52.468;13.342;2022-07-15T09:07:55;18.40;86.00
4962;DHT22;2496;52.468;13.342;2022-07-15T09:10:24;18.40;85.70
4962;DHT22;2496;52.468;13.342;2022-07-15T09:12:53;18.40;85.90
4962;DHT22;2496;52.468;13.342;2022-07-15T09:15:31;18.50;86.00
4962;DHT22;2496;52.468;13.342;2022-07-15T09:18:12;18.60;85.90
4962;DHT22;2496;52.468;13.342;2022-07-15T09:20:41;18.60;86.20
4962;DHT22;2496;52.468;13.342;2022-07-15T09:23:09;18.50;86.40
4962;DHT22;2496;52.468;13.342;2022-07-15T09:25:38;18.40;86.40
4962;DHT22;2496;52.468;13.342;2022-07-15T09:28:07;18.40;86.50
4962;DHT22;2496;52.468;13.342;2022-07-15T09:30:36;18.40;87.30
4962;DHT22;2496;52.468;13.342;2022-07-15T09:33:23;18.40;86.50
4962;DHT22;2496;52.468;13.342;2022-07-15T09:36:13;18.40;86.70
4962;DHT22;2496;52.468;13.342;2022-07-15T09:38:48;18.30;86.80
4962;DHT22;2496;52.468;13.342;2022-07-15T09:41:31;18.30;86.90
4962;DHT22;2496;52.468;13.342;2022-07-15T09:44:01;18.30;87.30
4962;DHT22;2496;52.468;13.342;2022-07-15T09:46:39;18.40;87.20
4962;DHT22;2496;52.468;13.342;2022-07-15T09:49:09;18.30;87.20
4962;DHT22;2496;52.468;13.342;2022-07-15T09:51:44;18.50;87.60
4962;DHT22;2496;52.468;13.342;2022-07-15T09:54:12;18.70;86.60
4962;DHT22;2496;52.468;13.342;2022-07-15T09:56:39;19.00;85.00
4962;DHT22;2496;52.468;13.342;2022-07-15T09:59:06;19.20;84.10
4962;DHT22;2496;52.468;13.342;2022-07-15T10:01:34;19.30;83.60
4962;DHT22;2496;52.468;13.342;2022-07-15T10:04:01;19.20;83.40
4962;DHT22;2496;52.468;13.342;2022-07-15T10:06:31;19.10;84.10
4962;DHT22;2496;52.468;13.342;2022-07-15T10:09:01;19.00;83.50
4962;DHT22;2496;52.468;13.342;2022-07-15T10:11:30;18.80;83.10
4962;DHT22;2496;52.468;13.342;2022-07-15T10:17:02;18.60;85.40
4962;DHT22;2496;52.468;13.342;2022-07-15T10:19:52;18.60;85.90
4962;DHT22;2496;52.468;13.342;2022-07-15T10:22:30;18.70;85.70
4962;DHT22;2496;52.468;13.342;2022-07-15T10:25:15;18.80;85.90
4962;DHT22;2496;52.468;13.342;2022-07-15T10:27:52;18.90;84.50
4962;DHT22;2496;52.468;13.342;2022-07-15T10:30:22;19.00;84.10
4962;DHT22;2496;52.468;13.342;2022-07-15T10:33:11;19.10;83.50
4962;DHT22;2496;52.468;13.342;2022-07-15T10:35:42;19.20;83.50
4962;DHT22;2496;52.468;13.342;2022-07-15T10:38:29;19.40;83.50
4962;DHT22;2496;52.468;13.342;2022-07-15T10:41:06;19.60;83.00
4962;DHT22;2496;52.468;13.342;2022-07-15T10:43:45;19.70;82.30
4962;DHT22;2496;52.468;13.342;2022-07-15T10:46:20;19.70;82.00
4962;DHT22;2496;52.468;13.342;2022-07-15T10:48:48;19.60;81.50
4962;DHT22;2496;52.468;13.342;2022-07-15T10:51:43;19.40;81.90
4962;DHT22;2496;52.468;13.342;2022-07-15T10:54:39;19.20;82.20
4962;DHT22;2496;52.468;13.342;2022-07-15T10:57:08;19.20;83.10
4962;DHT22;2496;52.468;13.342;2022-07-15T10:59:36;19.30;81.90
4962;DHT22;2496;52.468;13.342;2022-07-15T11:02:14;19.50;80.90
4962;DHT22;2496;52.468;13.342;2022-07-15T11:04:43;19.70;82.20
4962;DHT22;2496;52.468;13.342;2022-07-15T11:07:29;19.70;81.50
4962;DHT22;2496;52.468;13.342;2022-07-15T11:10:20;19.70;80.30
4962;DHT22;2496;52.468;13.342;2022-07-15T11:13:04;19.70;79.20
4962;DHT22;2496;52.468;13.342;2022-07-15T11:15:32;19.50;79.70
4962;DHT22;2496;52.468;13.342;2022-07-15T11:17:59;19.50;80.10
4962;DHT22;2496;52.468;13.342;2022-07-15T11:20:32;19.40;79.50
4962;DHT22;2496;52.468;13.342;2022-07-15T11:23:00;19.20;79.80
4962;DHT22;2496;52.468;13.342;2022-07-15T11:25:31;19.20;80.10
4962;DHT22;2496;52.468;13.342;2022-07-15T11:28:01;19.30;80.30
4962;DHT22;2496;52.468;13.342;2022-07-15T11:30:30;19.40;79.70
4962;DHT22;2496;52.468;13.342;2022-07-15T11:32:59;19.50;79.70
4962;DHT22;2496;52.468;13.342;2022-07-15T11:35:28;19.60;79.80
4962;DHT22;2496;52.468;13.342;2022-07-15T11:38:00;19.80;79.60
4962;DHT22;2496;52.468;13.342;2022-07-15T11:40:29;19.80;79.10
4962;DHT22;2496;52.468;13.342;2022-07-15T11:43:18;19.90;78.70
4962;DHT22;2496;52.468;13.342;2022-07-15T11:46:03;19.80;78.90
4962;DHT22;2496;52.468;13.342;2022-07-15T11:48:35;19.80;78.90
4962;DHT22;2496;52.468;13.342;2022-07-15T11:51:03;19.90;79.50
4962;DHT22;2496;52.468;13.342;2022-07-15T11:53:35;19.90;79.10
4962;DHT22;2496;52.468;13.342;2022-07-15T11:56:05;19.90;79.10
4962;DHT22;2496;52.468;13.342;2022-07-15T11:58:33;20.00;79.50
4962;DHT22;2496;52.468;13.342;2022-07-15T12:01:03;20.00;79.90
4962;DHT22;2496;52.468;13.342;2022-07-15T12:03:37;20.10;78.90
4962;DHT22;2496;52.468;13.342;2022-07-15T12:06:07;20.20;78.60
4962;DHT22;2496;52.468;13.342;2022-07-15T12:08:40;20.30;78.30
4962;DHT22;2496;52.468;13.342;2022-07-15T12:11:16;20.30;78.00
4962;DHT22;2496;52.468;13.342;2022-07-15T12:13:44;20.30;77.60
4962;DHT22;2496;52.468;13.342;2022-07-15T12:16:13;20.00;80.20
4962;DHT22;2496;52.468;13.342;2022-07-15T12:18:40;19.90;78.30
4962;DHT22;2496;52.468;13.342;2022-07-15T12:21:08;20.00;78.80
4962;DHT22;2496;52.468;13.342;2022-07-15T12:23:35;20.10;78.90
4962;DHT22;2496;52.468;13.342;2022-07-15T12:26:07;20.20;78.70
4962;DHT22;2496;52.468;13.342;2022-07-15T12:28:36;20.50;78.20
4962;DHT22;2496;52.468;13.342;2022-07-15T12:31:04;20.80;76.40
4962;DHT22;2496;52.468;13.342;2022-07-15T12:33:34;20.90;75.30
4962;DHT22;2496;52.468;13.342;2022-07-15T12:36:16;20.80;75.00
4962;DHT22;2496;52.468;13.342;2022-07-15T12:38:44;20.70;74.80
4962;DHT22;2496;52.468;13.342;2022-07-15T12:41:23;20.50;74.70
4962;DHT22;2496;52.468;13.342;2022-07-15T12:43:54;20.30;75.50
4962;DHT22;2496;52.468;13.342;2022-07-15T12:46:48;20.10;75.40
4962;DHT22;2496;52.468;13.342;2022-07-15T12:49:37;20.00;76.20
4962;DHT22;2496;52.468;13.342;2022-07-15T12:52:22;19.90;75.90
4962;DHT22;2496;52.468;13.342;2022-07-15T12:54:50;19.90;76.20
4962;DHT22;2496;52.468;13.342;2022-07-15T12:57:22;19.90;76.40
4962;DHT22;2496;52.468;13.342;2022-07-15T12:59:52;19.90;76.40
4962;DHT22;2496;52.468;13.342;2022-07-15T13:02:19;20.00;76.00
4962;DHT22;2496;52.468;13.342;2022-07-15T13:04:46;20.10;76.90
4962;DHT22;2496;52.468;13.342;2022-07-15T13:07:14;20.10;76.20
4962;DHT22;2496;52.468;13.342;2022-07-15T13:09:40;20.20;75.00
4962;DHT22;2496;52.468;13.342;2022-07-15T13:12:08;20.10;75.00
4962;DHT22;2496;52.468;13.342;2022-07-15T13:14:35;20.10;75.90
4962;DHT22;2496;52.468;13.342;2022-07-15T13:17:03;20.20;75.90
4962;DHT22;2496;52.468;13.342;2022-07-15T13:19:31;20.10;75.80
4962;DHT22;2496;52.468;13.342;2022-07-15T13:21:59;20.10;76.50
4962;DHT22;2496;52.468;13.342;2022-07-15T13:24:26;20.00;76.70
4962;DHT22;2496;52.468;13.342;2022-07-15T13:26:53;20.00;77.30
4962;DHT22;2496;52.468;13.342;2022-07-15T13:29:20;20.10;77.40
4962;DHT22;2496;52.468;13.342;2022-07-15T13:31:47;20.30;77.50
4962;DHT22;2496;52.468;13.342;2022-07-15T13:34:15;20.40;77.00
4962;DHT22;2496;52.468;13.342;2022-07-15T13:36:42;20.40;76.50
4962;DHT22;2496;52.468;13.342;2022-07-15T13:39:09;20.40;77.80
4962;DHT22;2496;52.468;13.342;2022-07-15T13:41:36;20.40;77.80
4962;DHT22;2496;52.468;13.342;2022-07-15T13:44:03;20.40;78.30
4962;DHT22;2496;52.468;13.342;2022-07-15T13:46:30;20.60;78.20
4962;DHT22;2496;52.468;13.342;2022-07-15T13:48:57;20.60;77.50
4962;DHT22;2496;52.468;13.342;2022-07-15T13:51:25;20.70;77.50
4962;DHT22;2496;52.468;13.342;2022-07-15T13:53:53;20.80;77.20
4962;DHT22;2496;52.468;13.342;2022-07-15T13:56:20;20.90;77.00
4962;DHT22;2496;52.468;13.342;2022-07-15T13:58:47;21.00;76.40
4962;DHT22;2496;52.468;13.342;2022-07-15T14:01:15;21.00;76.10
4962;DHT22;2496;52.468;13.342;2022-07-15T14:03:42;20.90;75.00
4962;DHT22;2496;52.468;13.342;2022-07-15T14:06:09;20.90;75.90
4962;DHT22;2496;52.468;13.342;2022-07-15T14:08:38;20.90;76.30
4962;DHT22;2496;52.468;13.342;2022-07-15T14:11:05;21.00;76.00
4962;DHT22;2496;52.468;13.342;2022-07-15T14:13:32;21.00;75.40
4962;DHT22;2496;52.468;13.342;2022-07-15T14:15:59;20.90;75.10
4962;DHT22;2496;52.468;13.342;2022-07-15T14:18:25;20.80;76.10
4962;DHT22;2496;52.468;13.342;2022-07-15T14:21:15;20.70;75.90
4962;DHT22;2496;52.468;13.342;2022-07-15T14:23:44;20.60;76.60
4962;DHT22;2496;52.468;13.342;2022-07-15T14:26:11;20.60;77.10
4962;DHT22;2496;52.468;13.342;2022-07-15T14:28:39;20.50;77.10
4962;DHT22;2496;52.468;13.342;2022-07-15T14:31:07;20.60;77.80
4962;DHT22;2496;52.468;13.342;2022-07-15T14:33:34;20.60;77.80
4962;DHT22;2496;52.468;13.342;2022-07-15T14:36:01;20.70;78.40
4962;DHT22;2496;52.468;13.342;2022-07-15T14:38:28;20.70;76.90
4962;DHT22;2496;52.468;13.342;2022-07-15T14:40:57;20.70;76.90
4962;DHT22;2496;52.468;13.342;2022-07-15T14:43:24;20.60;76.90
4962;DHT22;2496;52.468;13.342;2022-07-15T14:45:52;20.60;77.40
4962;DHT22;2496;52.468;13.342;2022-07-15T14:48:21;20.60;77.40
4962;DHT22;2496;52.468;13.342;2022-07-15T14:50:54;20.60;76.90
4962;DHT22;2496;52.468;13.342;2022-07-15T14:53:21;20.70;78.00
4962;DHT22;2496;52.468;13.342;2022-07-15T14:55:48;20.80;77.00
4962;DHT22;2496;52.468;13.342;2022-07-15T14:58:16;20.90;76.20
4962;DHT22;2496;52.468;13.342;2022-07-15T15:00:45;21.10;75.80
4962;DHT22;2496;52.468;13.342;2022-07-15T15:03:14;21.20;74.90
4962;DHT22;2496;52.468;13.342;2022-07-15T15:05:41;21.20;74.80
4962;DHT22;2496;52.468;13.342;2022-07-15T15:08:08;21.10;75.20
4962;DHT22;2496;52.468;13.342;2022-07-15T15:10:35;21.10;74.30
4962;DHT22;2496;52.468;13.342;2022-07-15T15:13:02;21.00;74.90
4962;DHT22;2496;52.468;13.342;2022-07-15T15:15:30;21.00;74.90
4962;DHT22;2496;52.468;13.342;2022-07-15T15:17:57;20.80;74.70
4962;DHT22;2496;52.468;13.342;2022-07-15T15:20:24;20.80;74.80
4962;DHT22;2496;52.468;13.342;2022-07-15T15:22:51;20.70;75.40
4962;DHT22;2496;52.468;13.342;2022-07-15T15:25:18;20.70;75.80
4962;DHT22;2496;52.468;13.342;2022-07-15T15:28:05;20.70;75.80
4962;DHT22;2496;52.468;13.342;2022-07-15T15:30:34;20.70;75.60
4962;DHT22;2496;52.468;13.342;2022-07-15T15:33:01;20.70;75.40
4962;DHT22;2496;52.468;13.342;2022-07-15T15:35:31;20.70;74.70
4962;DHT22;2496;52.468;13.342;2022-07-15T15:37:58;20.70;74.60
4962;DHT22;2496;52.468;13.342;2022-07-15T15:40:24;20.80;74.80
4962;DHT22;2496;52.468;13.342;2022-07-15T15:42:51;20.70;74.40
4962;DHT22;2496;52.468;13.342;2022-07-15T15:45:18;20.80;74.50
4962;DHT22;2496;52.468;13.342;2022-07-15T15:47:47;20.90;74.60
4962;DHT22;2496;52.468;13.342;2022-07-15T15:50:14;21.00;73.60
4962;DHT22;2496;52.468;13.342;2022-07-15T15:52:43;21.10;73.80
4962;DHT22;2496;52.468;13.342;2022-07-15T15:55:10;21.10;73.50
4962;DHT22;2496;52.468;13.342;2022-07-15T15:57:36;21.10;73.10
4962;DHT22;2496;52.468;13.342;2022-07-15T16:00:04;21.10;73.30